createdAt,value
2019-02-20T00:03:32.225Z,20.90
2019-02-20T00:07:40.492Z,13.75
2019-02-20T00:11:48.734Z,10.53
2019-02-20T00:15:56.991Z,12.80
2019-02-20T00:20:05.297Z,15.20
2019-02-20T00:24:13.487Z,19.42
2019-02-20T00:28:21.752Z,12.90
2019-02-20T00:32:29.991Z,18.33
2019-02-20T00:36:38.241Z,17.90
2019-02-20T00:40:46.509Z,31.53
2019-02-20T00:45:02.104Z,17.20
2019-02-20T00:49:15.361Z,16.43
2019-02-20T00:53:29.962Z,14.77
2019-02-20T00:57:38.205Z,12.83
2019-02-20T01:01:46.457Z,18.67
2019-02-20T01:05:54.677Z,13.77
2019-02-20T01:10:02.931Z,14.73
2019-02-20T01:14:11.211Z,13.10
2019-02-20T01:18:19.517Z,12.40
2019-02-20T01:22:27.778Z,13.37
2019-02-20T01:26:36.023Z,17.17
2019-02-20T01:30:44.272Z,24.27
2019-02-20T01:34:52.505Z,12.50
2019-02-20T01:39:00.766Z,14.03
2019-02-20T01:43:09.067Z,17.67
2019-02-20T01:47:17.293Z,12.37
2019-02-20T01:51:25.533Z,15.80
2019-02-20T01:55:33.791Z,22.80
2019-02-20T01:59:42.123Z,9.40
2019-02-20T02:03:50.392Z,14.70
2019-02-20T02:07:58.731Z,12.80
2019-02-20T02:12:06.925Z,15.17
2019-02-20T02:16:15.198Z,20.43
2019-02-20T02:20:23.436Z,16.07
2019-02-20T02:24:31.718Z,19.90
2019-02-20T02:28:39.955Z,18.83
2019-02-20T02:32:48.219Z,12.90
2019-02-20T02:36:56.526Z,14.80
2019-02-20T02:41:04.893Z,18.23
2019-02-20T02:45:13.207Z,15.37
2019-02-20T02:49:21.452Z,15.97
2019-02-20T02:53:30.912Z,15.57
2019-02-20T02:57:38.069Z,19.77
2019-02-20T03:01:46.358Z,16.70
2019-02-20T03:05:54.660Z,15.57
2019-02-20T03:10:02.935Z,13.30
2019-02-20T03:14:11.224Z,19.50
2019-02-20T03:18:19.490Z,22.67
2019-02-20T03:22:27.734Z,18.20
2019-02-20T03:26:35.993Z,17.83
2019-02-20T03:30:44.222Z,21.60
2019-02-20T03:34:52.460Z,27.00
2019-02-20T03:39:00.789Z,16.93
2019-02-20T03:43:09.045Z,17.30
2019-02-20T03:47:17.309Z,22.30
2019-02-20T03:51:25.552Z,15.77
2019-02-20T03:55:33.781Z,15.30
2019-02-20T03:59:42.043Z,16.53
2019-02-20T04:03:50.319Z,17.50
2019-02-20T04:07:58.534Z,15.13
2019-02-20T04:12:06.893Z,12.53
2019-02-20T04:16:15.116Z,19.53
2019-02-20T04:20:23.429Z,17.23
2019-02-20T04:24:31.725Z,18.23
2019-02-20T04:28:39.989Z,16.23
2019-02-20T04:32:48.294Z,16.57
2019-02-20T04:36:56.523Z,24.27
2019-02-20T04:41:04.782Z,27.87
2019-02-20T04:45:13.089Z,17.30
2019-02-20T04:49:21.348Z,23.40
2019-02-20T04:53:29.658Z,18.33
2019-02-20T04:57:37.937Z,18.50
2019-02-20T05:01:46.179Z,22.23
2019-02-20T05:05:54.405Z,19.93
2019-02-20T05:10:02.672Z,16.93
2019-02-20T05:14:10.934Z,19.20
2019-02-20T05:18:19.249Z,17.33
2019-02-20T05:22:27.569Z,21.50
2019-02-20T05:26:35.833Z,17.23
2019-02-20T05:30:44.076Z,22.30
2019-02-20T05:34:52.065Z,22.70
2019-02-20T05:39:00.330Z,16.90
2019-02-20T05:43:08.610Z,18.37
2019-02-20T05:47:17.148Z,20.27
2019-02-20T05:51:25.439Z,17.50
2019-02-20T05:55:33.673Z,26.67
2019-02-20T05:59:41.968Z,24.70
2019-02-20T06:03:50.235Z,21.93
2019-02-20T06:07:58.550Z,24.30
2019-02-20T06:12:06.802Z,26.50
2019-02-20T06:16:15.058Z,16.40
2019-02-20T06:20:23.384Z,21.63
2019-02-20T06:24:31.705Z,21.43
2019-02-20T06:28:40.002Z,19.17
2019-02-20T06:32:48.272Z,21.60
2019-02-20T06:36:56.522Z,19.70
2019-02-20T06:41:04.817Z,18.80
2019-02-20T06:45:13.127Z,21.13
2019-02-20T06:49:21.438Z,17.87
2019-02-20T06:53:29.748Z,18.80
2019-02-20T06:57:38.001Z,25.27
2019-02-20T07:01:46.281Z,19.50
2019-02-20T07:06:04.530Z,25.90
2019-02-20T07:10:22.533Z,26.27
2019-02-20T07:14:45.633Z,18.30
2019-02-20T07:21:07.467Z,15.47
2019-02-20T07:26:27.458Z,18.60
2019-02-20T07:30:35.656Z,21.53
2019-02-20T07:34:44.096Z,23.77
2019-02-20T07:38:52.326Z,30.00
2019-02-20T07:43:00.631Z,31.67
2019-02-20T07:47:08.819Z,21.63
2019-02-20T07:51:17.152Z,27.43
2019-02-20T07:55:25.394Z,23.70
2019-02-20T07:59:33.653Z,24.20
2019-02-20T08:03:41.908Z,26.13
2019-02-20T08:07:50.148Z,21.40
2019-02-20T08:11:58.407Z,29.90
2019-02-20T08:16:06.678Z,29.63
2019-02-20T08:20:14.907Z,27.03
2019-02-20T08:24:23.161Z,26.60
2019-02-20T08:28:31.422Z,27.43
2019-02-20T08:32:39.669Z,31.47
2019-02-20T08:36:47.927Z,27.90
2019-02-20T08:40:56.174Z,36.70
2019-02-20T08:45:04.530Z,34.33
2019-02-20T08:49:12.815Z,26.87
2019-02-20T08:53:21.087Z,29.43
2019-02-20T08:57:29.372Z,30.97
2019-02-20T09:01:37.644Z,24.43
2019-02-20T09:05:45.881Z,30.92
2019-02-20T09:09:54.117Z,28.03
2019-02-20T09:14:02.422Z,29.10
2019-02-20T09:18:10.763Z,32.03
2019-02-20T09:22:19.083Z,23.23
2019-02-20T09:26:27.332Z,22.53
2019-02-20T09:30:35.631Z,25.67
2019-02-20T09:34:43.915Z,35.38
2019-02-20T09:38:52.161Z,30.93
2019-02-20T09:43:00.472Z,26.60
2019-02-20T09:47:08.774Z,30.57
2019-02-20T09:51:17.078Z,28.40
2019-02-20T09:55:25.365Z,33.37
2019-02-20T09:59:33.591Z,25.20
2019-02-20T10:03:41.876Z,26.27
2019-02-20T10:07:50.115Z,21.53
2019-02-20T10:11:58.399Z,26.07
2019-02-20T10:16:06.674Z,23.67
2019-02-20T10:20:14.947Z,28.37
2019-02-20T10:24:23.255Z,24.87
2019-02-20T10:28:31.479Z,29.00
2019-02-20T10:32:39.736Z,28.43
2019-02-20T10:36:47.962Z,27.20
2019-02-20T10:40:56.180Z,29.90
2019-02-20T10:45:04.703Z,37.33
2019-02-20T10:49:12.927Z,34.83
2019-02-20T10:53:21.176Z,22.30
2019-02-20T10:57:29.430Z,23.60
2019-02-20T11:01:37.712Z,26.10
2019-02-20T11:05:45.992Z,28.23
2019-02-20T11:09:54.257Z,28.63
2019-02-20T11:14:02.469Z,29.03
2019-02-20T11:18:10.727Z,24.87
2019-02-20T11:22:20.599Z,24.27
2019-02-20T11:26:27.255Z,23.20
2019-02-20T11:30:35.588Z,22.80
2019-02-20T11:34:43.835Z,19.90
2019-02-20T11:38:52.068Z,19.50
2019-02-20T11:43:00.322Z,14.87
2019-02-20T11:47:08.721Z,13.77
2019-02-20T11:51:17.016Z,13.55
2019-02-20T11:55:25.298Z,13.80
2019-02-20T11:59:33.794Z,16.43
2019-02-20T12:03:42.080Z,12.60
2019-02-20T12:07:50.381Z,19.53
2019-02-20T12:11:58.633Z,25.77
2019-02-20T12:16:06.903Z,23.80
2019-02-20T12:20:15.148Z,23.53
2019-02-20T12:24:23.495Z,18.23
2019-02-20T12:28:31.733Z,20.40
2019-02-20T12:32:39.968Z,19.70
2019-02-20T12:36:48.231Z,20.57
2019-02-20T12:40:56.466Z,15.90
2019-02-20T12:45:05.250Z,14.93
2019-02-20T12:49:13.591Z,21.60
2019-02-20T12:53:21.846Z,21.10
2019-02-20T12:57:30.144Z,18.23
2019-02-20T13:01:38.408Z,16.43
2019-02-20T13:05:46.840Z,13.83
2019-02-20T13:09:55.142Z,19.07
2019-02-20T13:14:03.369Z,12.90
2019-02-20T13:18:11.580Z,14.70
2019-02-20T13:22:19.878Z,12.20
2019-02-20T13:26:28.137Z,12.13
2019-02-20T13:30:36.404Z,20.37
2019-02-20T13:34:44.641Z,14.73
2019-02-20T13:38:53.005Z,14.23
2019-02-20T13:43:01.292Z,13.13
2019-02-20T13:47:09.592Z,10.83
2019-02-20T13:51:17.913Z,14.40
2019-02-20T13:55:34.232Z,9.20
2019-02-20T13:59:34.419Z,16.23
2019-02-20T14:03:42.689Z,9.03
2019-02-20T14:07:50.962Z,14.27
2019-02-20T14:11:59.171Z,12.60
2019-02-20T14:16:07.434Z,11.27
2019-02-20T14:20:15.666Z,8.67
2019-02-20T14:24:23.925Z,11.50
2019-02-20T14:28:32.202Z,11.70
2019-02-20T14:32:40.450Z,7.40
2019-02-20T14:36:48.726Z,8.40
2019-02-20T14:40:57.014Z,8.03
2019-02-20T14:45:05.769Z,7.63
2019-02-20T14:49:14.040Z,13.37
2019-02-20T14:53:22.048Z,12.13
2019-02-20T14:57:30.349Z,8.40
2019-02-20T15:01:38.622Z,6.93
2019-02-20T15:05:47.998Z,7.77
2019-02-20T15:09:55.197Z,12.77
2019-02-20T15:14:03.462Z,14.50
2019-02-20T15:18:11.705Z,9.13
2019-02-20T15:22:19.922Z,12.17
2019-02-20T15:26:28.228Z,8.30
2019-02-20T15:30:36.458Z,8.83
2019-02-20T15:34:44.790Z,7.20
2019-02-20T15:38:53.061Z,13.97
2019-02-20T15:43:01.671Z,9.93
2019-02-20T15:47:09.553Z,8.73
2019-02-20T15:51:17.791Z,13.27
2019-02-20T15:55:26.107Z,12.10
2019-02-20T15:59:34.395Z,13.33
2019-02-20T16:03:42.682Z,11.47
2019-02-20T16:07:50.996Z,12.00
2019-02-20T16:11:59.254Z,11.63
2019-02-20T16:16:07.541Z,13.87
2019-02-20T16:20:19.075Z,16.80
2019-02-20T16:24:27.342Z,13.30
2019-02-20T16:28:35.592Z,12.80
2019-02-20T16:32:43.857Z,15.93
2019-02-20T16:36:52.140Z,15.20
2019-02-20T16:41:00.589Z,12.37
2019-02-20T16:45:15.241Z,15.70
2019-02-20T16:49:23.458Z,13.30
2019-02-20T16:53:31.714Z,12.50
2019-02-20T16:57:41.304Z,15.83
2019-02-20T17:01:49.623Z,12.50
2019-02-20T17:05:57.847Z,12.60
2019-02-20T17:10:07.425Z,12.17
2019-02-20T17:14:15.697Z,16.20
2019-02-20T17:18:23.973Z,16.97
2019-02-20T17:22:32.218Z,12.60
2019-02-20T17:26:40.525Z,14.13
2019-02-20T17:30:48.556Z,13.77
2019-02-20T17:34:56.802Z,14.50
2019-02-20T17:39:07.291Z,17.07
2019-02-20T17:43:14.108Z,13.50
2019-02-20T17:47:22.333Z,14.10
2019-02-20T17:51:30.565Z,14.20
2019-02-20T17:55:38.825Z,12.53
2019-02-20T17:59:47.077Z,17.60
2019-02-20T18:03:55.387Z,12.17
2019-02-20T18:08:03.599Z,14.43
2019-02-20T18:12:12.191Z,14.30
2019-02-20T18:16:20.416Z,15.50
2019-02-20T18:20:28.697Z,15.10
2019-02-20T18:24:37.029Z,12.90
2019-02-20T18:28:45.313Z,16.87
2019-02-20T18:32:53.615Z,16.70
2019-02-20T18:37:02.489Z,14.23
2019-02-20T18:41:10.765Z,14.63
2019-02-20T18:45:19.048Z,14.97
2019-02-20T18:49:27.807Z,19.05
2019-02-20T18:53:36.091Z,13.80
2019-02-20T18:57:44.354Z,16.57
2019-02-20T19:01:52.611Z,14.60
2019-02-20T19:06:00.917Z,16.93
2019-02-20T19:10:13.833Z,18.30
2019-02-20T19:14:29.860Z,15.13
2019-02-20T19:19:06.984Z,19.97
2019-02-20T19:23:32.422Z,14.70
2019-02-20T19:28:05.718Z,15.20
2019-02-20T19:34:40.282Z,20.37
2019-02-20T19:39:26.941Z,21.80
2019-02-20T19:45:47.557Z,19.92
2019-02-20T19:50:26.445Z,23.43
2019-02-20T19:54:44.788Z,20.30
2019-02-20T19:59:03.162Z,20.57
2019-02-20T20:04:40.325Z,21.10
2019-02-20T20:09:15.980Z,20.33
2019-02-20T20:16:35.133Z,24.70
2019-02-20T20:21:12.662Z,19.60
2019-02-20T20:25:47.235Z,22.90
2019-02-20T20:32:09.788Z,25.03
2019-02-20T20:36:46.464Z,25.43
2019-02-20T20:41:09.147Z,19.58
2019-02-20T20:45:28.829Z,19.27
2019-02-20T20:50:49.827Z,23.07
2019-02-20T20:55:03.378Z,25.70
2019-02-20T20:59:51.218Z,18.80
2019-02-20T21:04:22.101Z,23.90
2019-02-20T21:08:37.767Z,16.57
2019-02-20T21:12:57.869Z,16.07
2019-02-20T21:17:47.422Z,19.25
2019-02-20T21:22:14.558Z,18.73
2019-02-20T21:28:37.771Z,20.03
2019-02-20T21:32:57.467Z,19.77
2019-02-20T21:39:23.296Z,15.37
2019-02-20T21:44:02.886Z,18.27
2019-02-20T21:48:20.041Z,16.35
2019-02-20T21:52:42.375Z,21.43
2019-02-20T21:57:18.282Z,17.87
2019-02-20T22:01:34.980Z,17.40
2019-02-20T22:06:02.673Z,20.90
2019-02-20T22:10:28.751Z,19.57
2019-02-20T22:15:07.019Z,18.70
2019-02-20T22:19:27.304Z,22.13
2019-02-20T22:23:47.669Z,19.73
2019-02-20T22:28:08.917Z,18.97
2019-02-20T22:32:39.017Z,18.00
2019-02-20T22:37:00.591Z,21.53
2019-02-20T22:41:18.141Z,19.70
2019-02-20T22:45:40.344Z,20.57
2019-02-20T22:50:01.578Z,19.97
2019-02-20T22:54:23.728Z,18.90
2019-02-20T22:58:45.241Z,19.70
2019-02-20T23:04:01.703Z,24.10
2019-02-20T23:08:20.961Z,22.93
2019-02-20T23:12:41.270Z,17.97
2019-02-20T23:16:49.458Z,17.20
2019-02-20T23:20:57.673Z,17.23
2019-02-20T23:25:05.944Z,21.30
2019-02-20T23:29:14.169Z,16.30
2019-02-20T23:33:22.391Z,19.57
2019-02-20T23:37:30.600Z,23.13
2019-02-20T23:41:38.911Z,22.63
2019-02-20T23:45:47.147Z,26.87
2019-02-20T23:49:56.545Z,29.97
2019-02-20T23:54:03.617Z,22.40
2019-02-20T23:58:11.839Z,21.20
